createdAt,value
2019-04-22T00:02:22.556Z,66.80
2019-04-22T00:05:04.789Z,66.60
2019-04-22T00:07:56.351Z,66.70
2019-04-22T00:10:26.129Z,67.00
2019-04-22T00:13:02.805Z,66.90
2019-04-22T00:15:29.220Z,67.20
2019-04-22T00:18:16.191Z,67.60
2019-04-22T00:20:42.488Z,67.70
2019-04-22T00:23:11.458Z,67.70
2019-04-22T00:25:56.080Z,67.60
2019-04-22T00:28:21.599Z,68.00
2019-04-22T00:31:00.743Z,67.80
2019-04-22T00:33:31.271Z,68.10
2019-04-22T00:36:08.857Z,68.00
2019-04-22T00:38:48.962Z,67.90
2019-04-22T00:41:16.702Z,68.20
2019-04-22T00:43:48.120Z,68.50
2019-04-22T00:46:19.570Z,68.50
2019-04-22T00:49:33.100Z,68.20
2019-04-22T00:51:28.749Z,68.50
2019-04-22T00:53:57.804Z,69.50
2019-04-22T00:56:27.722Z,69.40
2019-04-22T00:58:59.055Z,69.90
2019-04-22T01:01:41.007Z,70.00
2019-04-22T01:06:42.752Z,69.80
2019-04-22T01:09:16.879Z,69.60
2019-04-22T01:12:07.632Z,70.40
2019-04-22T01:14:21.642Z,69.60
2019-04-22T01:16:56.507Z,70.30
2019-04-22T01:19:32.372Z,70.00
2019-04-22T01:21:58.394Z,70.20
2019-04-22T01:24:32.364Z,70.30
2019-04-22T01:27:03.662Z,70.50
2019-04-22T01:29:30.371Z,70.60
2019-04-22T01:31:51.405Z,71.10
2019-04-22T01:34:40.375Z,71.00
2019-04-22T01:37:19.745Z,71.20
2019-04-22T01:39:56.991Z,71.40
2019-04-22T01:42:35.753Z,71.70
2019-04-22T01:45:06.703Z,72.30
2019-04-22T01:47:36.754Z,72.00
2019-04-22T01:50:17.217Z,72.50
2019-04-22T01:52:47.355Z,72.50
2019-04-22T01:55:28.828Z,72.60
2019-04-22T01:57:50.024Z,72.50
2019-04-22T02:00:16.425Z,72.90
2019-04-22T02:02:59.180Z,73.00
2019-04-22T02:05:32.764Z,73.30
2019-04-22T02:08:06.743Z,73.30
2019-04-22T02:10:40.689Z,72.90
2019-04-22T02:13:09.922Z,73.00
2019-04-22T02:15:47.999Z,73.30
2019-04-22T02:18:22.996Z,73.00
2019-04-22T02:20:50.034Z,73.00
2019-04-22T02:26:10.852Z,72.90
2019-04-22T02:41:26.189Z,72.40
2019-04-22T02:46:44.974Z,72.20
2019-04-22T02:49:11.130Z,72.80
2019-04-22T02:51:32.642Z,72.40
2019-04-22T02:59:14.621Z,72.10
2019-04-22T03:01:47.864Z,72.00
2019-04-22T03:04:22.789Z,72.00
2019-04-22T03:12:14.370Z,72.30
2019-04-22T03:14:50.991Z,72.20
2019-04-22T03:19:56.687Z,72.20
2019-04-22T03:22:16.965Z,72.60
2019-04-22T03:25:06.133Z,72.40
2019-04-22T03:27:36.835Z,72.50
2019-04-22T03:42:56.313Z,72.90
2019-04-22T03:48:03.723Z,72.60
2019-04-22T03:50:38.996Z,72.70
2019-04-22T03:53:11.161Z,72.80
2019-04-22T03:55:41.319Z,73.10
2019-04-22T03:58:23.794Z,73.90
2019-04-22T04:03:11.751Z,74.70
2019-04-22T04:05:56.912Z,74.30
2019-04-22T04:08:26.361Z,74.60
2019-04-22T04:10:55.586Z,74.80
2019-04-22T04:15:57.642Z,75.00
2019-04-22T04:18:46.767Z,75.20
2019-04-22T04:21:22.690Z,75.50
2019-04-22T04:24:05.693Z,76.20
2019-04-22T04:26:17.745Z,75.50
2019-04-22T04:29:21.607Z,75.40
2019-04-22T04:33:54.239Z,75.50
2019-04-22T04:36:28.332Z,75.80
2019-04-22T04:39:01.030Z,75.60
2019-04-22T04:46:45.159Z,76.10
2019-04-22T04:56:46.578Z,76.60
2019-04-22T04:59:50.803Z,76.40
2019-04-22T05:01:52.692Z,76.60
2019-04-22T05:04:37.238Z,76.90
2019-04-22T05:12:12.365Z,77.80
2019-04-22T05:14:36.861Z,76.70
2019-04-22T05:17:12.815Z,77.20
2019-04-22T05:19:50.447Z,76.80
2019-04-22T05:22:14.899Z,76.00
2019-04-22T05:24:53.371Z,76.50
2019-04-22T05:27:32.961Z,76.30
2019-04-22T05:30:07.464Z,76.50
2019-04-22T05:32:25.713Z,76.50
2019-04-22T05:35:00.450Z,76.60
2019-04-22T05:37:34.159Z,75.50
2019-04-22T05:40:10.326Z,76.00
2019-04-22T05:42:32.169Z,75.80
2019-04-22T05:47:50.720Z,75.20
2019-04-22T05:52:54.185Z,75.00
2019-04-22T05:55:23.754Z,74.80
2019-04-22T06:01:01.918Z,74.20
2019-04-22T06:03:12.259Z,74.10
2019-04-22T06:05:41.758Z,74.00
2019-04-22T06:08:10.291Z,73.00
2019-04-22T06:10:58.104Z,73.70
2019-04-22T06:13:20.250Z,72.80
2019-04-22T06:15:54.378Z,72.20
2019-04-22T06:18:27.458Z,72.20
2019-04-22T06:21:09.083Z,72.00
2019-04-22T06:23:40.280Z,72.40
2019-04-22T06:26:26.834Z,72.20
2019-04-22T06:28:50.096Z,72.00
2019-04-22T06:31:23.021Z,72.10
2019-04-22T06:33:48.720Z,71.10
2019-04-22T06:36:26.278Z,71.20
2019-04-22T06:38:56.652Z,72.00
2019-04-22T06:41:28.389Z,70.90
2019-04-22T06:44:09.371Z,71.60
2019-04-22T06:46:36.742Z,71.40
2019-04-22T06:49:12.862Z,70.60
2019-04-22T06:51:38.906Z,69.80
2019-04-22T06:54:17.959Z,70.60
2019-04-22T06:56:49.155Z,69.90
2019-04-22T06:59:24.750Z,68.80
2019-04-22T07:02:02.617Z,68.30
2019-04-22T07:04:30.201Z,69.00
2019-04-22T07:07:05.205Z,69.40
2019-04-22T07:12:13.074Z,68.30
2019-04-22T07:14:47.478Z,67.70
2019-04-22T07:17:15.004Z,68.20
2019-04-22T07:19:45.334Z,67.70
2019-04-22T07:24:53.906Z,66.60
2019-04-22T07:27:20.643Z,66.10
2019-04-22T07:30:03.571Z,66.90
2019-04-22T07:32:53.604Z,66.30
2019-04-22T07:35:08.469Z,66.40
2019-04-22T07:40:09.947Z,66.80
2019-04-22T07:42:46.015Z,67.30
2019-04-22T07:45:17.882Z,66.20
2019-04-22T07:47:56.132Z,67.30
2019-04-22T07:50:39.290Z,66.40
2019-04-22T07:52:51.421Z,66.70
2019-04-22T07:55:29.471Z,66.10
2019-04-22T07:58:10.670Z,65.30
2019-04-22T08:00:39.008Z,66.20
2019-04-22T08:03:14.569Z,65.20
2019-04-22T08:05:51.579Z,65.70
2019-04-22T08:08:21.568Z,64.60
2019-04-22T08:13:25.342Z,65.00
2019-04-22T08:15:58.052Z,65.90
2019-04-22T08:21:07.558Z,63.50
2019-04-22T08:26:11.391Z,63.60
2019-04-22T08:28:50.855Z,64.50
2019-04-22T08:31:24.910Z,63.60
2019-04-22T08:34:08.200Z,63.00
2019-04-22T08:36:25.632Z,63.00
2019-04-22T08:39:14.067Z,66.80
2019-04-22T08:44:18.702Z,65.10
2019-04-22T08:46:40.396Z,63.50
2019-04-22T08:49:09.871Z,63.60
2019-04-22T08:51:43.106Z,63.20
2019-04-22T08:54:18.297Z,64.20
2019-04-22T08:57:00.153Z,63.50
2019-04-22T08:59:30.864Z,64.70
2019-04-22T09:02:06.582Z,63.30
2019-04-22T09:04:39.201Z,61.80
2019-04-22T09:09:44.546Z,62.60
2019-04-22T09:15:01.141Z,60.60
2019-04-22T09:17:28.344Z,61.70
2019-04-22T09:19:55.931Z,60.80
2019-04-22T09:22:28.044Z,61.60
2019-04-22T09:24:58.959Z,61.90
2019-04-22T09:27:38.540Z,60.30
2019-04-22T09:30:06.297Z,60.30
2019-04-22T09:35:10.185Z,60.50
2019-04-22T09:37:50.020Z,59.50
2019-04-22T09:40:21.743Z,59.50
2019-04-22T09:42:50.554Z,58.50
2019-04-22T09:45:21.162Z,58.50
2019-04-22T09:48:00.858Z,58.00
2019-04-22T09:50:40.470Z,57.90
2019-04-22T09:53:08.332Z,58.30
2019-04-22T09:55:45.098Z,56.80
2019-04-22T09:58:16.583Z,56.60
2019-04-22T10:01:24.738Z,58.10
2019-04-22T10:03:56.261Z,56.00
2019-04-22T10:09:12.681Z,56.70
2019-04-22T10:11:33.956Z,56.60
2019-04-22T10:16:39.440Z,56.80
2019-04-22T10:21:46.327Z,56.50
2019-04-22T10:24:13.720Z,55.40
2019-04-22T10:26:44.093Z,56.10
2019-04-22T10:29:19.596Z,54.10
2019-04-22T10:34:14.029Z,53.60
2019-04-22T10:36:35.413Z,53.70
2019-04-22T10:39:08.564Z,51.90
2019-04-22T10:41:41.259Z,52.90
2019-04-22T10:44:13.115Z,51.20
2019-04-22T10:46:46.266Z,52.90
2019-04-22T10:49:18.201Z,52.30
2019-04-22T10:51:50.764Z,51.50
2019-04-22T10:54:23.355Z,51.00
2019-04-22T10:56:55.128Z,51.00
2019-04-22T10:59:26.922Z,50.90
2019-04-22T11:02:01.451Z,50.60
2019-04-22T11:04:34.280Z,50.40
2019-04-22T11:07:10.728Z,50.70
2019-04-22T11:09:52.017Z,49.40
2019-04-22T11:12:19.238Z,49.50
2019-04-22T11:14:47.725Z,49.10
2019-04-22T11:17:19.588Z,50.00
2019-04-22T11:19:51.282Z,47.10
2019-04-22T11:22:27.682Z,47.00
2019-04-22T11:24:57.970Z,47.50
2019-04-22T11:27:28.675Z,48.70
2019-04-22T11:30:01.854Z,47.50
2019-04-22T11:32:34.304Z,48.50
2019-04-22T11:35:07.827Z,47.20
2019-04-22T11:37:40.692Z,46.40
2019-04-22T11:40:22.280Z,45.90
2019-04-22T11:42:48.215Z,47.90
2019-04-22T11:45:19.522Z,48.40
2019-04-22T11:47:51.095Z,47.10
2019-04-22T11:50:25.982Z,45.70
2019-04-22T11:52:58.586Z,43.60
2019-04-22T11:55:32.908Z,45.60
2019-04-22T11:58:06.738Z,44.60
2019-04-22T12:00:39.070Z,43.90
2019-04-22T12:03:12.504Z,44.40
2019-04-22T12:05:45.980Z,43.30
2019-04-22T12:08:17.749Z,42.70
2019-04-22T12:10:54.593Z,42.30
2019-04-22T12:13:23.762Z,42.50
2019-04-22T12:15:55.682Z,45.10
2019-04-22T12:18:29.009Z,45.00
2019-04-22T12:21:01.303Z,43.90
2019-04-22T12:23:32.778Z,43.70
2019-04-22T12:26:09.281Z,42.60
2019-04-22T12:28:37.103Z,43.50
2019-04-22T12:31:09.419Z,44.20
2019-04-22T12:33:41.491Z,43.10
2019-04-22T12:36:14.749Z,42.50
2019-04-22T12:38:47.630Z,41.40
2019-04-22T12:41:19.834Z,42.50
2019-04-22T12:43:51.641Z,42.60
2019-04-22T12:46:24.043Z,41.90
2019-04-22T12:48:56.310Z,42.20
2019-04-22T12:51:29.138Z,43.10
2019-04-22T12:54:01.367Z,42.20
2019-04-22T12:56:33.514Z,42.00
2019-04-22T12:59:07.644Z,42.20
2019-04-22T13:01:39.561Z,40.70
2019-04-22T13:04:15.316Z,41.00
2019-04-22T13:06:45.932Z,43.10
2019-04-22T13:09:19.500Z,41.10
2019-04-22T13:11:52.852Z,40.90
2019-04-22T13:14:25.142Z,41.10
2019-04-22T13:16:57.747Z,41.80
2019-04-22T13:19:30.261Z,40.80
2019-04-22T13:22:03.104Z,41.50
2019-04-22T13:24:36.178Z,42.60
2019-04-22T13:27:08.865Z,41.60
2019-04-22T13:29:41.235Z,41.50
2019-04-22T13:32:13.168Z,42.30
2019-04-22T13:34:47.998Z,40.70
2019-04-22T13:37:19.131Z,41.00
2019-04-22T13:39:50.563Z,41.80
2019-04-22T13:42:23.442Z,40.70
2019-04-22T13:44:55.925Z,41.10
2019-04-22T13:53:15.158Z,41.30
2019-04-22T13:54:00.251Z,41.30
2019-04-22T13:54:17.150Z,40.70
2019-04-22T13:55:43.649Z,41.50
2019-04-22T13:57:58.265Z,41.50
2019-04-22T14:00:24.871Z,40.60
2019-04-22T14:03:29.046Z,40.20
2019-04-22T14:06:02.620Z,42.10
2019-04-22T14:08:35.272Z,41.60
2019-04-22T14:11:16.930Z,40.30
2019-04-22T14:13:41.723Z,40.20
2019-04-22T14:16:15.142Z,40.60
2019-04-22T14:18:49.676Z,39.70
2019-04-22T14:21:23.017Z,40.00
2019-04-22T14:23:54.394Z,41.30
2019-04-22T14:26:27.325Z,39.70
2019-04-22T14:28:59.986Z,40.30
2019-04-22T14:31:34.094Z,41.20
2019-04-22T14:34:08.202Z,40.60
2019-04-22T14:36:41.298Z,40.80
2019-04-22T14:39:12.918Z,40.00
2019-04-22T14:42:02.688Z,40.20
2019-04-22T14:47:15.792Z,41.40
2019-04-22T14:49:47.419Z,41.50
2019-04-22T14:52:21.555Z,40.40
2019-04-22T14:54:45.889Z,41.00
2019-04-22T14:57:07.211Z,41.80
2019-04-22T14:59:39.934Z,40.10
2019-04-22T15:02:11.790Z,41.00
2019-04-22T15:04:43.617Z,41.00
2019-04-22T15:07:16.842Z,40.30
2019-04-22T15:09:48.258Z,40.60
2019-04-22T15:12:30.186Z,41.20
2019-04-22T15:14:53.516Z,42.20
2019-04-22T15:17:38.748Z,42.00
2019-04-22T15:20:27.730Z,41.30
2019-04-22T15:22:59.539Z,42.10
2019-04-22T15:25:32.629Z,41.80
2019-04-22T15:28:03.792Z,42.10
2019-04-22T15:30:37.304Z,42.60
2019-04-22T15:33:09.725Z,43.20
2019-04-22T15:35:41.189Z,43.30
2019-04-22T15:38:13.276Z,42.80
2019-04-22T15:40:45.262Z,42.70
2019-04-22T15:43:17.306Z,42.70
2019-04-22T15:45:48.847Z,43.00
2019-04-22T15:48:21.204Z,42.80
2019-04-22T15:50:53.045Z,42.40
2019-04-22T15:53:25.421Z,42.90
2019-04-22T15:55:56.676Z,42.80
2019-04-22T15:58:29.969Z,43.10
2019-04-22T16:01:10.751Z,43.20
2019-04-22T16:03:34.508Z,44.80
2019-04-22T16:06:08.106Z,43.90
2019-04-22T16:08:41.044Z,43.10
2019-04-22T16:11:13.808Z,43.80
2019-04-22T16:13:46.579Z,43.20
2019-04-22T16:16:18.684Z,44.20
2019-04-22T16:18:50.755Z,44.30
2019-04-22T16:21:32.681Z,43.80
2019-04-22T16:24:18.216Z,43.90
2019-04-22T16:26:58.288Z,42.90
2019-04-22T16:29:29.586Z,42.70
2019-04-22T16:32:03.039Z,41.20
2019-04-22T16:34:35.934Z,41.70
2019-04-22T16:37:07.640Z,43.00
2019-04-22T16:39:41.939Z,41.90
2019-04-22T16:42:26.936Z,42.20
2019-04-22T16:44:47.497Z,41.60
2019-04-22T16:47:19.784Z,42.60
2019-04-22T16:49:51.913Z,41.90
2019-04-22T16:52:23.805Z,43.00
2019-04-22T16:54:58.947Z,43.40
2019-04-22T16:57:30.514Z,45.70
2019-04-22T17:00:02.917Z,45.00
2019-04-22T17:02:50.085Z,45.00
2019-04-22T17:05:49.867Z,47.30
2019-04-22T17:08:22.330Z,45.50
2019-04-22T17:10:53.739Z,43.90
2019-04-22T17:13:28.771Z,43.90
2019-04-22T17:16:00.506Z,44.30
2019-04-22T17:18:31.032Z,44.30
2019-04-22T17:21:06.627Z,43.80
2019-04-22T17:23:38.224Z,44.70
2019-04-22T17:26:12.568Z,44.70
2019-04-22T17:28:45.848Z,44.80
2019-04-22T17:31:18.473Z,44.90
2019-04-22T17:33:50.809Z,44.70
2019-04-22T17:36:22.375Z,45.60
2019-04-22T17:39:07.042Z,45.10
2019-04-22T17:41:48.499Z,44.50
2019-04-22T17:44:41.382Z,44.30
2019-04-22T17:47:16.790Z,45.20
2019-04-22T17:50:05.181Z,45.10
2019-04-22T17:52:32.785Z,45.90
2019-04-22T17:54:58.991Z,46.20
2019-04-22T17:57:34.448Z,47.00
2019-04-22T18:00:06.471Z,47.70
2019-04-22T18:02:42.435Z,48.00
2019-04-22T18:05:01.144Z,49.10
2019-04-22T18:07:57.654Z,49.10
2019-04-22T18:13:01.748Z,49.00
2019-04-22T18:15:26.934Z,49.60
2019-04-22T18:18:08.707Z,49.80
2019-04-22T18:20:30.013Z,49.70
2019-04-22T18:22:56.964Z,50.00
2019-04-22T18:25:36.446Z,50.40
2019-04-22T18:28:21.424Z,50.40
2019-04-22T18:30:40.152Z,50.80
2019-04-22T18:33:20.718Z,50.90
2019-04-22T18:35:49.151Z,51.10
2019-04-22T18:38:33.162Z,51.10
2019-04-22T18:41:03.533Z,51.00
2019-04-22T18:43:32.941Z,51.20
2019-04-22T18:46:09.498Z,51.20
2019-04-22T18:48:42.545Z,50.60
2019-04-22T18:51:24.928Z,51.30
2019-04-22T18:54:14.717Z,50.80
2019-04-22T18:56:52.490Z,51.50
2019-04-22T18:59:13.554Z,51.40
2019-04-22T19:01:38.161Z,50.60
2019-04-22T19:04:17.162Z,51.30
2019-04-22T19:07:00.373Z,51.20
2019-04-22T19:09:41.417Z,52.00
2019-04-22T19:12:23.023Z,51.60
2019-04-22T19:17:30.042Z,51.40
2019-04-22T19:19:59.587Z,51.90
2019-04-22T19:22:25.328Z,51.60
2019-04-22T19:24:56.026Z,51.30
2019-04-22T19:27:30.994Z,51.30
2019-04-22T19:30:04.515Z,51.90
2019-04-22T19:32:42.026Z,51.60
2019-04-22T19:35:03.745Z,52.00
2019-04-22T19:37:37.413Z,51.90
2019-04-22T19:40:20.581Z,51.50
2019-04-22T19:42:53.490Z,51.40
2019-04-22T19:45:17.607Z,51.90
2019-04-22T19:48:03.637Z,51.40
2019-04-22T19:50:27.751Z,51.80
2019-04-22T19:53:01.263Z,51.50
2019-04-22T19:55:39.253Z,51.90
2019-04-22T19:58:07.193Z,51.90
2019-04-22T20:00:52.019Z,52.20
2019-04-22T20:03:50.874Z,52.10
2019-04-22T20:06:35.308Z,51.70
2019-04-22T20:09:07.332Z,51.90
2019-04-22T20:11:41.876Z,51.90
2019-04-22T20:14:12.547Z,51.40
2019-04-22T20:16:37.444Z,51.50
2019-04-22T20:19:24.953Z,52.00
2019-04-22T20:21:51.826Z,51.30
2019-04-22T20:24:12.047Z,50.80
2019-04-22T20:27:15.230Z,51.60
2019-04-22T20:29:37.674Z,51.70
2019-04-22T20:32:05.384Z,51.20
2019-04-22T20:34:39.041Z,51.90
2019-04-22T20:37:16.595Z,51.50
2019-04-22T20:40:00.463Z,50.20
2019-04-22T20:42:29.760Z,50.00
2019-04-22T20:44:51.685Z,49.80
2019-04-22T20:47:19.193Z,50.70
2019-04-22T20:49:58.756Z,50.20
2019-04-22T20:52:34.173Z,50.70
2019-04-22T20:54:58.913Z,50.20
2019-04-22T20:57:36.308Z,50.10
2019-04-22T21:00:05.389Z,50.00
2019-04-22T21:02:32.310Z,50.00
2019-04-22T21:05:03.209Z,50.00
2019-04-22T21:07:48.007Z,50.60
2019-04-22T21:10:18.416Z,49.90
2019-04-22T21:12:55.811Z,50.40
2019-04-22T21:15:40.821Z,49.90
2019-04-22T21:18:01.160Z,50.80
2019-04-22T21:20:39.248Z,50.00
2019-04-22T21:23:17.827Z,50.40
2019-04-22T21:25:43.034Z,50.30
2019-04-22T21:28:31.232Z,50.40
2019-04-22T21:30:57.124Z,50.10
2019-04-22T21:33:24.844Z,51.00
2019-04-22T21:36:19.009Z,50.50
2019-04-22T21:38:37.592Z,50.70
2019-04-22T21:41:09.861Z,50.00
2019-04-22T21:43:48.125Z,50.30
2019-04-22T21:46:16.526Z,50.50
2019-04-22T21:48:52.814Z,50.40
2019-04-22T21:51:31.670Z,51.00
2019-04-22T21:54:06.904Z,51.00
2019-04-22T21:56:40.774Z,51.10
2019-04-22T21:59:11.100Z,51.40
2019-04-22T22:04:17.392Z,50.80
2019-04-22T22:06:40.971Z,50.60
2019-04-22T22:09:25.402Z,51.70
2019-04-22T22:11:55.467Z,50.20
2019-04-22T22:14:27.622Z,50.80
2019-04-22T22:16:53.370Z,51.20
2019-04-22T22:19:38.012Z,49.90
2019-04-22T22:22:25.452Z,50.70
2019-04-22T22:24:46.718Z,50.80
2019-04-22T22:27:14.259Z,51.20
2019-04-22T22:30:05.556Z,50.70
2019-04-22T22:32:26.020Z,50.40
2019-04-22T22:34:58.750Z,50.40
2019-04-22T22:37:17.077Z,50.90
2019-04-22T22:39:52.832Z,50.40
2019-04-22T22:42:22.546Z,50.80
2019-04-22T22:44:52.642Z,51.30
2019-04-22T22:47:38.362Z,50.90
2019-04-22T22:50:12.556Z,50.90
2019-04-22T22:53:02.380Z,51.20
2019-04-22T22:55:20.008Z,50.90
2019-04-22T22:57:50.224Z,51.00
2019-04-22T23:00:22.321Z,51.70
2019-04-22T23:03:25.981Z,51.60
2019-04-22T23:05:37.668Z,52.50
2019-04-22T23:08:09.569Z,51.00
2019-04-22T23:10:54.247Z,51.70
2019-04-22T23:13:20.455Z,52.00
2019-04-22T23:15:38.730Z,52.20
2019-04-22T23:17:58.130Z,52.50
2019-04-22T23:20:34.448Z,52.40
2019-04-22T23:23:20.143Z,52.90
2019-04-22T23:26:02.576Z,53.10
2019-04-22T23:28:43.556Z,52.90
2019-04-22T23:31:31.684Z,53.10
2019-04-22T23:34:10.654Z,53.30
2019-04-22T23:36:57.519Z,53.60
2019-04-22T23:39:41.987Z,54.00
2019-04-22T23:42:15.969Z,53.80
2019-04-22T23:44:46.937Z,54.50
2019-04-22T23:47:35.149Z,53.90
2019-04-22T23:50:14.756Z,54.50
2019-04-22T23:52:53.051Z,54.80
2019-04-22T23:55:29.514Z,54.70
2019-04-22T23:58:02.980Z,54.30
